Time;durP1;ratioP1;P1;durP2;ratioP2;P2;SDS_P1;SDS_P2;PMS_P1;PMS_P2;Temp;Humidity;BMP_temperature;BMP_pressure;BME280_temperature;BME280_humidity;BME280_pressure;Samples;Min_cycle;Max_cycle;Signal;HPM_P1;HPM_P2
2023/09/30 00:01:55;;;;;;;21.17;6.55;;;;;;;;;;4975321;28;20434;-77
2023/09/30 00:04:21;;;;;;;18.75;6.65;;;;;;;;;;4971885;28;20435;-76
2023/09/30 00:06:48;;;;;;;17.73;6.70;;;;;;;;;;4989625;28;20421;-77
2023/09/30 00:09:14;;;;;;;18.45;6.82;;;;;;;;;;4976383;28;20405;-77
2023/09/30 00:11:40;;;;;;;20.05;6.93;;;;;;;;;;4971371;28;20840;-77
2023/09/30 00:14:08;;;;;;;19.48;7.05;;;;;;;;;;4957793;28;20480;-77
2023/09/30 00:16:34;;;;;;;17.33;6.35;;;;;;;;;;4980176;28;20922;-77
2023/09/30 00:19:02;;;;;;;19.83;6.82;;;;;;;;;;4999513;28;20445;-77
2023/09/30 00:21:28;;;;;;;20.67;6.60;;;;;;;;;;4965078;28;20427;-77
2023/09/30 00:23:54;;;;;;;22.65;6.40;;;;;;;;;;4978376;28;20434;-77
2023/09/30 00:26:22;;;;;;;16.10;5.95;;;;;;;;;;4982589;28;21029;-77
2023/09/30 00:28:48;;;;;;;19.45;6.32;;;;;;;;;;4992483;28;20424;-77
2023/09/30 00:31:14;;;;;;;22.92;6.45;;;;;;;;;;4976431;28;20825;-77
2023/09/30 00:33:42;;;;;;;20.07;6.60;;;;;;;;;;4975074;28;20420;-77
2023/09/30 00:36:14;;;;;;;18.02;6.60;;;;;;;;;;4977523;28;20411;-77
2023/09/30 00:38:52;;;;;;;16.42;6.00;;;;;;;;;;4981520;28;20827;-77
2023/09/30 00:41:24;;;;;;;18.83;6.43;;;;;;;;;;5006808;28;20953;-77
2023/09/30 00:43:50;;;;;;;16.63;6.65;;;;;;;;;;4981700;28;20934;-77
2023/09/30 00:46:30;;;;;;;17.20;6.90;;;;;;;;;;4972881;28;20763;-77
2023/09/30 00:48:58;;;;;;;18.10;6.33;;;;;;;;;;4972147;28;20848;-77
2023/09/30 00:51:27;;;;;;;18.45;6.45;;;;;;;;;;5002850;28;20466;-76
2023/09/30 00:54:00;;;;;;;17.08;6.15;;;;;;;;;;4991288;28;20940;-77
2023/09/30 00:56:28;;;;;;;20.45;6.97;;;;;;;;;;4987759;28;20431;-77
2023/09/30 00:58:57;;;;;;;18.48;6.40;;;;;;;;;;4971947;28;20483;-76
2023/09/30 01:01:24;;;;;;;18.42;6.60;;;;;;;;;;4988501;28;20419;-77
2023/09/30 01:03:50;;;;;;;17.55;6.35;;;;;;;;;;4984221;28;20430;-77
2023/09/30 01:06:26;;;;;;;19.02;6.20;;;;;;;;;;4988354;28;20541;-77
2023/09/30 01:08:53;;;;;;;19.77;6.80;;;;;;;;;;4971578;28;20449;-77
2023/09/30 01:11:19;;;;;;;19.05;6.25;;;;;;;;;;4958095;28;20797;-77
2023/09/30 01:13:47;;;;;;;16.83;5.97;;;;;;;;;;4987834;28;20482;-77
2023/09/30 01:16:13;;;;;;;18.25;6.28;;;;;;;;;;4971864;28;20560;-76
2023/09/30 01:18:42;;;;;;;19.35;6.90;;;;;;;;;;4995488;28;20421;-76
2023/09/30 01:21:09;;;;;;;17.17;6.27;;;;;;;;;;4985962;28;20433;-76
2023/09/30 01:23:35;;;;;;;17.30;6.33;;;;;;;;;;4985674;28;20504;-76
2023/09/30 01:26:15;;;;;;;19.08;6.25;;;;;;;;;;4970864;28;20417;-76
2023/09/30 01:28:41;;;;;;;20.95;6.47;;;;;;;;;;4987235;28;20768;-76
2023/09/30 01:31:07;;;;;;;16.95;5.68;;;;;;;;;;4975538;28;20401;-76
2023/09/30 01:33:38;;;;;;;19.27;6.35;;;;;;;;;;4976424;28;20426;-77
2023/09/30 01:36:08;;;;;;;14.38;5.30;;;;;;;;;;5002474;28;20953;-77
2023/09/30 01:38:34;;;;;;;18.40;5.20;;;;;;;;;;4991893;28;20436;-77
2023/09/30 01:41:05;;;;;;;14.48;5.32;;;;;;;;;;4988910;28;20440;-77
2023/09/30 01:43:41;;;;;;;18.58;5.75;;;;;;;;;;4991215;28;20433;-77
2023/09/30 01:46:07;;;;;;;16.35;5.43;;;;;;;;;;5001000;28;20823;-76
2023/09/30 01:48:36;;;;;;;16.17;5.55;;;;;;;;;;5006327;28;20499;-77
2023/09/30 01:51:08;;;;;;;13.57;5.57;;;;;;;;;;4991378;28;20770;-77
2023/09/30 01:53:38;;;;;;;18.87;5.53;;;;;;;;;;4991779;28;20517;-77
2023/09/30 01:56:10;;;;;;;15.38;4.80;;;;;;;;;;4991797;28;20467;-77
2023/09/30 01:58:37;;;;;;;19.23;5.95;;;;;;;;;;4990524;28;20484;-77
2023/09/30 02:01:04;;;;;;;15.55;4.93;;;;;;;;;;4966856;28;20512;-77
2023/09/30 02:03:33;;;;;;;15.02;5.70;;;;;;;;;;4989161;28;20980;-77
2023/09/30 02:06:10;;;;;;;17.80;5.93;;;;;;;;;;4996447;28;20451;-76
2023/09/30 02:08:39;;;;;;;17.60;5.57;;;;;;;;;;5001013;28;20403;-77
2023/09/30 02:11:16;;;;;;;14.80;4.88;;;;;;;;;;4978190;28;20428;-77
2023/09/30 02:13:50;;;;;;;17.73;5.53;;;;;;;;;;4991069;28;20811;-77
2023/09/30 02:16:20;;;;;;;11.88;4.60;;;;;;;;;;4995901;28;20417;-77
2023/09/30 02:18:50;;;;;;;12.10;4.85;;;;;;;;;;4975117;28;20938;-77
2023/09/30 02:21:21;;;;;;;16.15;5.07;;;;;;;;;;5011005;28;20404;-77
2023/09/30 02:23:57;;;;;;;14.50;4.93;;;;;;;;;;5000557;28;20517;-77
2023/09/30 02:26:27;;;;;;;13.93;5.10;;;;;;;;;;4987490;28;20478;-77
2023/09/30 02:29:05;;;;;;;15.23;5.45;;;;;;;;;;4988635;28;20411;-77
2023/09/30 02:31:31;;;;;;;17.13;4.95;;;;;;;;;;4958712;28;20403;-77
2023/09/30 02:33:57;;;;;;;15.15;4.82;;;;;;;;;;5011167;28;20397;-77
2023/09/30 02:36:27;;;;;;;16.40;4.68;;;;;;;;;;5004919;28;20458;-77
2023/09/30 02:39:02;;;;;;;16.55;4.70;;;;;;;;;;4992647;28;20438;-77
2023/09/30 02:41:29;;;;;;;13.70;5.32;;;;;;;;;;4990234;28;20482;-77
2023/09/30 02:43:55;;;;;;;11.90;4.32;;;;;;;;;;4997209;28;21059;-77
2023/09/30 02:46:22;;;;;;;16.55;5.97;;;;;;;;;;4976581;28;20421;-77
2023/09/30 02:48:48;;;;;;;17.63;5.47;;;;;;;;;;4991364;28;20427;-77
2023/09/30 02:51:14;;;;;;;13.15;4.65;;;;;;;;;;4999994;28;20415;-77
2023/09/30 02:53:40;;;;;;;14.57;5.05;;;;;;;;;;4991618;28;20434;-77
2023/09/30 02:56:07;;;;;;;18.05;5.57;;;;;;;;;;4991590;28;20425;-76
2023/09/30 02:58:33;;;;;;;13.30;5.00;;;;;;;;;;4993734;28;20424;-76
2023/09/30 03:01:00;;;;;;;13.93;4.78;;;;;;;;;;5009371;28;20424;-76
2023/09/30 03:03:26;;;;;;;14.38;5.28;;;;;;;;;;5009703;28;20869;-76
2023/09/30 03:05:52;;;;;;;18.42;5.15;;;;;;;;;;4980045;28;20485;-76
2023/09/30 03:08:18;;;;;;;19.00;5.60;;;12.80;99.90;;;;;;4974413;28;20505;-76
2023/09/30 03:10:44;;;;;;;19.17;6.07;;;12.60;99.90;;;;;;4984737;28;20504;-76
2023/09/30 03:13:09;;;;;;;17.33;5.93;;;12.60;99.90;;;;;;4971501;28;20426;-76
2023/09/30 03:15:36;;;;;;;14.67;5.50;;;12.50;99.90;;;;;;4989298;28;20492;-76
2023/09/30 03:18:03;;;;;;;15.73;5.53;;;12.70;99.90;;;;;;4998286;28;20601;-76
2023/09/30 03:20:30;;;;;;;16.83;5.30;;;12.80;99.90;;;;;;4996313;28;20425;-76
2023/09/30 03:22:56;;;;;;;18.97;6.67;;;12.50;99.90;;;;;;5009116;28;20545;-76
2023/09/30 03:25:23;;;;;;;16.65;5.97;;;;;;;;;;4980819;28;20767;-76
2023/09/30 03:27:49;;;;;;;18.20;6.30;;;12.50;99.90;;;;;;4989538;28;20421;-77
2023/09/30 03:30:16;;;;;;;17.83;6.23;;;12.30;99.90;;;;;;4993412;28;20422;-77
2023/09/30 03:32:42;;;;;;;20.73;6.90;;;12.60;99.90;;;;;;4973562;28;20429;-77
2023/09/30 03:35:16;;;;;;;21.42;6.50;;;;;;;;;;4996864;28;20425;-77
2023/09/30 03:37:46;;;;;;;20.45;6.40;;;;;;;;;;4994395;28;20508;-76
2023/09/30 03:40:14;;;;;;;20.65;6.95;;;12.10;99.90;;;;;;4998065;28;20475;-76
2023/09/30 03:42:43;;;;;;;20.00;7.50;;;;;;;;;;4998130;28;20494;-77
2023/09/30 03:45:10;;;;;;;20.27;7.28;;;12.10;99.90;;;;;;5005294;28;20516;-77
2023/09/30 03:47:37;;;;;;;21.13;7.10;;;12.30;99.90;;;;;;4973114;28;20476;-77
2023/09/30 03:50:04;;;;;;;20.92;7.47;;;12.20;99.90;;;;;;4998663;28;20487;-77
2023/09/30 03:52:32;;;;;;;21.23;8.23;;;;;;;;;;4979915;28;20423;-77
2023/09/30 03:55:05;;;;;;;19.75;8.43;;;;;;;;;;4991592;28;20426;-76
2023/09/30 03:57:36;;;;;;;22.60;8.57;;;;;;;;;;4989299;28;20428;-76
2023/09/30 04:00:16;;;;;;;20.30;8.70;;;;;;;;;;4994235;28;20431;-77
2023/09/30 04:02:49;;;;;;;23.90;9.70;;;;;;;;;;4994853;28;20433;-76
2023/09/30 04:05:16;;;;;;;25.83;9.47;;;;;;;;;;4991433;28;20425;-77
2023/09/30 04:07:43;;;;;;;22.08;9.48;;;;;;;;;;4992054;28;20487;-77
2023/09/30 04:10:10;;;;;;;24.38;9.75;;;;;;;;;;4997262;28;20470;-77
2023/09/30 04:12:36;;;;;;;25.05;10.02;;;11.90;99.90;;;;;;5003357;28;20425;-76
2023/09/30 04:15:07;;;;;;;22.77;10.45;;;;;;;;;;4995326;28;20426;-77
2023/09/30 04:17:34;;;;;;;28.90;10.02;;;;;;;;;;4963034;28;20449;-77
2023/09/30 04:20:04;;;;;;;24.98;10.90;;;;;;;;;;4999775;28;20968;-78
2023/09/30 04:22:39;;;;;;;26.50;10.68;;;;;;;;;;4989207;28;20406;-77
2023/09/30 04:25:08;;;;;;;28.48;10.88;;;;;;;;;;4995555;28;20926;-77
2023/09/30 04:27:35;;;;;;;24.17;10.17;;;;;;;;;;4987240;28;20477;-77
2023/09/30 04:30:08;;;;;;;30.80;11.40;;;;;;;;;;4985976;28;20464;-77
2023/09/30 04:32:40;;;;;;;23.08;10.60;;;;;;;;;;4975169;28;20979;-77
2023/09/30 04:35:08;;;;;;;24.50;10.30;;;;;;;;;;4987748;28;20411;-76
2023/09/30 04:37:36;;;;;;;24.55;11.30;;;12.10;99.90;;;;;;5001074;28;20524;-77
2023/09/30 04:40:07;;;;;;;26.73;10.60;;;12.20;99.90;;;;;;4990391;28;20470;-77
2023/09/30 04:42:39;;;;;;;25.20;10.27;;;;;;;;;;4994451;28;20411;-77
2023/09/30 04:45:10;;;;;;;24.65;10.88;;;;;;;;;;5005955;28;20855;-77
2023/09/30 04:47:36;;;;;;;22.52;11.05;;;11.90;99.90;;;;;;4982680;28;20779;-77
2023/09/30 04:50:07;;;;;;;28.92;10.90;;;12.10;99.90;;;;;;4995572;28;20412;-76
2023/09/30 04:52:33;;;;;;;27.15;11.05;;;12.00;99.90;;;;;;5006238;28;20425;-77
2023/09/30 04:54:59;;;;;;;28.60;11.10;;;11.90;99.90;;;;;;5008112;28;20900;-77
2023/09/30 04:57:26;;;;;;;27.00;10.85;;;12.10;99.90;;;;;;4980112;28;20926;-77
2023/09/30 04:59:52;;;;;;;29.60;11.35;;;11.90;99.90;;;;;;4976522;28;20695;-77
2023/09/30 05:02:18;;;;;;;26.17;11.43;;;11.90;99.90;;;;;;4983992;28;20489;-77
2023/09/30 05:04:44;;;;;;;23.10;10.95;;;;;;;;;;4988463;28;20426;-76
2023/09/30 05:07:12;;;;;;;28.00;11.60;;;;;;;;;;4987776;28;20414;-77
2023/09/30 05:09:38;;;;;;;27.17;11.00;;;11.90;99.90;;;;;;4989045;28;20428;-77
2023/09/30 05:12:04;;;;;;;23.35;11.60;;;11.70;99.90;;;;;;5006710;28;20405;-77
2023/09/30 05:14:31;;;;;;;27.48;12.00;;;12.00;99.90;;;;;;5003793;28;20429;-77
2023/09/30 05:16:57;;;;;;;30.08;11.68;;;;;;;;;;4988195;28;20422;-77
2023/09/30 05:19:23;;;;;;;26.98;11.57;;;11.90;99.90;;;;;;4989500;28;20428;-76
2023/09/30 05:21:49;;;;;;;23.98;11.85;;;;;;;;;;5003966;28;20424;-76
2023/09/30 05:24:18;;;;;;;27.85;11.60;;;;;;;;;;4986285;28;20804;-77
2023/09/30 05:26:45;;;;;;;29.00;11.55;;;;;;;;;;5010635;28;20433;-77
2023/09/30 05:29:10;;;;;;;26.07;12.13;;;11.90;99.90;;;;;;4999669;28;20422;-78
2023/09/30 05:31:36;;;;;;;27.83;12.03;;;11.70;99.90;;;;;;5005459;28;20864;-77
2023/09/30 05:34:02;;;;;;;24.87;11.80;;;11.70;99.90;;;;;;4983482;28;20432;-77
2023/09/30 05:36:29;;;;;;;28.37;12.37;;;11.70;99.90;;;;;;4992150;28;20422;-77
2023/09/30 05:38:58;;;;;;;27.45;12.60;;;11.70;99.90;;;;;;4974874;28;20495;-77
2023/09/30 05:41:24;;;;;;;26.42;12.15;;;11.40;99.90;;;;;;4976844;28;20490;-77
2023/09/30 05:43:50;;;;;;;31.92;12.70;;;;;;;;;;4996125;28;20425;-77
2023/09/30 05:46:17;;;;;;;28.73;12.93;;;;;;;;;;4975134;28;20442;-76
2023/09/30 05:48:43;;;;;;;26.42;13.23;;;11.60;99.90;;;;;;4982565;28;20422;-77
2023/09/30 05:51:09;;;;;;;27.77;12.60;;;11.50;99.90;;;;;;4999412;28;20429;-77
2023/09/30 05:53:36;;;;;;;26.33;13.45;;;;;;;;;;4992061;28;20550;-76
2023/09/30 05:56:02;;;;;;;26.85;13.45;;;;;;;;;;4995080;28;20429;-77
2023/09/30 05:58:28;;;;;;;29.90;13.53;;;;;;;;;;4991219;28;20411;-76
2023/09/30 06:00:54;;;;;;;31.15;13.98;;;;;;;;;;4974464;28;20814;-78
2023/09/30 06:03:22;;;;;;;31.05;13.63;;;11.10;99.90;;;;;;4994383;28;20444;-78
2023/09/30 06:05:48;;;;;;;31.93;14.27;;;11.50;99.90;;;;;;4999041;28;20425;-78
2023/09/30 06:08:16;;;;;;;25.03;13.33;;;;;;;;;;4989978;28;20416;-77
2023/09/30 06:10:47;;;;;;;30.27;14.20;;;;;;;;;;4988632;28;20409;-77
2023/09/30 06:13:15;;;;;;;27.67;13.25;;;;;;;;;;4988475;28;20418;-76
2023/09/30 06:15:42;;;;;;;31.42;14.30;;;11.60;99.90;;;;;;4998197;28;20992;-77
2023/09/30 06:18:13;;;;;;;29.42;14.43;;;;;;;;;;5002308;28;20426;-77
2023/09/30 06:20:39;;;;;;;31.95;14.52;;;;;;;;;;4979385;28;20914;-76
2023/09/30 06:23:05;;;;;;;29.15;14.43;;;;;;;;;;4981832;28;20416;-75
2023/09/30 06:25:35;;;;;;;28.25;13.70;;;;;;;;;;4991330;28;20417;-75
2023/09/30 06:28:03;;;;;;;26.77;14.00;;;11.70;99.90;;;;;;4975143;28;20418;-76
2023/09/30 06:30:33;;;;;;;29.25;13.52;;;11.80;99.90;;;;;;4997025;28;20512;-76
2023/09/30 06:33:00;;;;;;;27.95;13.88;;;;;;;;;;4981784;28;20417;-76
2023/09/30 06:35:33;;;;;;;24.58;13.95;;;11.90;99.90;;;;;;4986176;28;20441;-75
2023/09/30 06:37:59;;;;;;;25.90;13.27;;;12.20;99.90;;;;;;4952225;28;20429;-76
2023/09/30 06:40:25;;;;;;;24.17;13.23;;;12.10;99.90;;;;;;4989820;28;20435;-82
2023/09/30 06:42:52;;;;;;;26.85;13.48;;;;;;;;;;4994856;28;20419;-82
2023/09/30 06:45:18;;;;;;;24.98;13.60;;;;;;;;;;4989893;28;20539;-82
2023/09/30 06:47:45;;;;;;;22.92;12.85;;;12.50;99.90;;;;;;5004084;28;20967;-82
2023/09/30 06:50:16;;;;;;;25.67;12.50;;;12.50;99.90;;;;;;4982990;28;20427;-83
2023/09/30 06:52:45;;;;;;;25.67;13.40;;;12.60;99.90;;;;;;4989986;28;20735;-82
2023/09/30 06:55:13;;;;;;;27.20;13.05;;;12.70;99.90;;;;;;4978774;28;20432;-81
2023/09/30 06:57:43;;;;;;;20.30;12.37;;;;;;;;;;4975681;28;20411;-83
2023/09/30 07:00:11;;;;;;;22.90;12.55;;;;;;;;;;5000291;28;20499;-82
2023/09/30 07:02:37;;;;;;;24.88;11.85;;;;;;;;;;4999321;28;20452;-82
2023/09/30 07:05:08;;;;;;;25.30;12.68;;;12.90;99.90;;;;;;4985782;28;20455;-82
2023/09/30 07:07:34;;;;;;;22.15;12.23;;;;;;;;;;4993229;28;20411;-83
2023/09/30 07:10:00;;;;;;;23.02;12.02;;;12.90;99.90;;;;;;5002380;28;20492;-81
2023/09/30 07:12:26;;;;;;;25.27;12.23;;;13.10;99.90;;;;;;5002540;28;20453;-82
2023/09/30 07:14:52;;;;;;;22.42;12.45;;;;;;;;;;4990906;28;20426;-82
2023/09/30 07:17:17;;;;;;;20.77;12.40;;;13.40;99.90;;;;;;5002844;28;20429;-82
2023/09/30 07:19:43;;;;;;;22.88;11.80;;;13.10;99.90;;;;;;5003956;28;20421;-81
2023/09/30 07:22:09;;;;;;;21.83;11.80;;;13.40;99.90;;;;;;4984274;28;20923;-83
2023/09/30 07:24:35;;;;;;;23.77;11.70;;;13.60;99.90;;;;;;4989504;28;20433;-83
2023/09/30 07:27:01;;;;;;;21.40;12.03;;;13.30;99.90;;;;;;5000696;28;20414;-83
2023/09/30 07:29:27;;;;;;;21.87;11.83;;;;;;;;;;5001021;28;20448;-83
2023/09/30 07:31:52;;;;;;;20.17;11.40;;;13.90;99.90;;;;;;4985589;28;20421;-83
2023/09/30 07:34:18;;;;;;;21.63;11.77;;;14.00;99.90;;;;;;4997217;28;20930;-84
2023/09/30 07:36:44;;;;;;;22.08;11.70;;;14.00;99.90;;;;;;4991724;28;20460;-84
2023/09/30 07:39:10;;;;;;;21.97;11.33;;;14.20;99.90;;;;;;4934470;28;1811463;-84
2023/09/30 07:41:38;;;;;;;22.70;10.98;;;14.30;99.90;;;;;;5007969;28;20417;-82
2023/09/30 07:44:05;;;;;;;20.40;11.20;;;14.40;99.90;;;;;;4978258;28;20429;-81
2023/09/30 07:46:31;;;;;;;20.27;10.90;;;14.20;99.90;;;;;;5000099;28;20982;-83
2023/09/30 07:48:58;;;;;;;19.05;10.85;;;14.50;99.90;;;;;;4990339;28;20431;-85
2023/09/30 07:51:24;;;;;;;21.15;11.18;;;14.70;99.90;;;;;;5005853;28;20412;-85
2023/09/30 07:53:50;;;;;;;21.13;11.13;;;14.50;99.90;;;;;;4984669;28;20778;-84
2023/09/30 07:56:16;;;;;;;18.33;10.50;;;14.90;99.90;;;;;;4988152;28;20424;-85
2023/09/30 07:58:42;;;;;;;19.35;11.10;;;14.60;99.90;;;;;;4976845;28;20830;-85
2023/09/30 08:01:11;;;;;;;21.07;11.07;;;15.00;99.90;;;;;;5002745;28;20424;-85
2023/09/30 08:03:37;;;;;;;19.67;11.25;;;15.00;99.90;;;;;;4982651;28;20469;-83
2023/09/30 08:06:03;;;;;;;21.90;10.30;;;15.10;99.90;;;;;;4964530;28;20972;-84
2023/09/30 08:08:29;;;;;;;19.55;10.25;;;15.20;99.90;;;;;;4983045;28;20469;-84
2023/09/30 08:10:56;;;;;;;18.93;9.90;;;15.20;99.90;;;;;;4978312;28;20411;-85
2023/09/30 08:13:25;;;;;;;18.05;10.13;;;15.30;99.90;;;;;;4984600;28;20421;-84
2023/09/30 08:15:51;;;;;;;19.05;9.73;;;15.80;99.90;;;;;;5000306;28;20515;-84
2023/09/30 08:18:17;;;;;;;19.65;9.80;;;15.60;99.90;;;;;;5009547;28;20457;-85
2023/09/30 08:20:43;;;;;;;17.13;8.90;;;15.70;99.90;;;;;;4989528;28;20458;-84
2023/09/30 08:23:09;;;;;;;20.48;9.35;;;15.90;99.90;;;;;;4999469;28;20428;-85
2023/09/30 08:25:35;;;;;;;15.70;9.43;;;16.10;99.90;;;;;;4992650;28;20794;-85
2023/09/30 08:28:00;;;;;;;17.07;9.53;;;16.10;99.90;;;;;;4995478;28;20409;-84
2023/09/30 08:30:26;;;;;;;15.20;8.47;;;16.20;99.90;;;;;;5001923;28;20786;-84
2023/09/30 08:32:52;;;;;;;18.57;9.07;;;16.30;99.90;;;;;;4978457;28;20414;-83
2023/09/30 08:35:18;;;;;;;17.23;8.50;;;16.40;99.90;;;;;;4959434;28;20413;-84
2023/09/30 08:37:44;;;;;;;15.70;7.95;;;16.20;99.90;;;;;;4999681;28;20507;-84
2023/09/30 08:40:10;;;;;;;15.25;8.20;;;16.80;99.90;;;;;;4993126;28;20436;-84
2023/09/30 08:42:37;;;;;;;16.42;8.48;;;16.80;99.90;;;;;;4969158;28;20423;-84
2023/09/30 08:45:06;;;;;;;15.13;7.90;;;17.00;99.90;;;;;;4998047;28;22033;-84
2023/09/30 08:47:34;;;;;;;16.67;8.63;;;16.90;99.90;;;;;;4990666;28;20441;-85
2023/09/30 08:50:05;;;;;;;14.05;7.72;;;17.00;99.90;;;;;;4994604;28;20959;-86
2023/09/30 08:52:33;;;;;;;14.23;7.78;;;17.40;99.90;;;;;;4975414;28;20430;-84
2023/09/30 08:54:59;;;;;;;16.45;8.30;;;17.10;99.90;;;;;;4980267;28;20497;-85
2023/09/30 08:57:27;;;;;;;15.80;7.78;;;17.40;99.90;;;;;;4977785;28;20422;-84
2023/09/30 08:59:53;;;;;;;14.67;7.43;;;17.50;99.90;;;;;;4975679;28;20493;-83
2023/09/30 09:02:19;;;;;;;15.30;7.40;;;17.60;99.90;;;;;;4997519;28;20840;-83
2023/09/30 09:04:49;;;;;;;15.73;7.40;;;17.60;99.90;;;;;;4988566;28;20475;-82
2023/09/30 09:07:15;;;;;;;14.60;6.67;;;17.50;99.90;;;;;;4998535;28;20424;-84
2023/09/30 09:09:41;;;;;;;13.53;6.33;;;17.70;99.90;;;;;;4980747;28;20548;-82
2023/09/30 09:12:18;;;;;;;14.60;7.57;;;17.90;99.90;;;;;;4995955;28;20498;-80
2023/09/30 09:14:44;;;;;;;12.95;6.50;;;18.00;99.90;;;;;;4989131;28;20560;-80
2023/09/30 09:17:11;;;;;;;12.32;6.80;;;18.00;99.90;;;;;;4973726;28;20428;-81
2023/09/30 09:19:37;;;;;;;13.07;6.95;;;18.20;99.90;;;;;;4990245;28;20423;-81
2023/09/30 09:22:06;;;;;;;13.00;6.53;;;18.10;99.90;;;;;;5003113;28;20959;-81
2023/09/30 09:24:34;;;;;;;14.23;6.65;;;18.20;99.90;;;;;;4972401;28;20477;-81
2023/09/30 09:27:16;;;;;;;18.40;7.13;;;18.00;99.90;;;;;;4974091;28;20420;-82
2023/09/30 09:29:44;;;;;;;13.80;6.30;;;18.20;99.90;;;;;;4973187;28;20483;-81
2023/09/30 09:32:15;;;;;;;13.73;6.05;;;18.60;99.90;;;;;;4974585;28;20441;-81
2023/09/30 09:34:43;;;;;;;12.48;5.15;;;18.70;99.90;;;;;;4997211;28;20503;-81
2023/09/30 09:37:15;;;;;;;12.43;5.05;;;18.70;99.90;;;;;;4996090;28;20479;-81
2023/09/30 09:39:50;;;;;;;12.85;4.93;;;18.60;99.90;;;;;;4992666;28;20811;-82
2023/09/30 09:42:25;;;;;;;12.17;5.03;;;18.80;99.90;;;;;;4979724;28;20962;-82
2023/09/30 09:45:02;;;;;;;13.57;5.45;;;18.70;99.90;;;;;;4979451;28;20640;-81
2023/09/30 09:47:31;;;;;;;11.45;5.38;;;18.40;99.90;;;;;;4989935;28;20441;-82
2023/09/30 09:49:58;;;;;;;11.68;5.00;;;18.40;99.90;;;;;;4988863;28;20418;-82
2023/09/30 09:52:24;;;;;;;12.70;5.35;;;18.50;99.90;;;;;;4986865;28;20430;-81
2023/09/30 09:54:51;;;;;;;10.15;4.65;;;18.50;99.90;;;;;;4992576;28;20920;-81
2023/09/30 09:57:21;;;;;;;10.00;4.78;;;18.60;99.90;;;;;;4982398;28;20427;-82
2023/09/30 09:59:47;;;;;;;12.48;4.93;;;19.00;99.90;;;;;;4992262;28;20487;-82
2023/09/30 10:02:17;;;;;;;13.60;5.10;;;18.80;99.90;;;;;;4973366;28;20443;-81
2023/09/30 10:04:47;;;;;;;13.35;4.00;;;18.70;99.90;;;;;;4982567;28;20425;-80
2023/09/30 10:07:25;;;;;;;10.70;3.50;;;18.80;99.90;;;;;;4975637;28;20429;-82
2023/09/30 10:09:52;;;;;;;13.50;3.80;;;18.80;99.90;;;;;;4993853;28;20426;-80
2023/09/30 10:12:21;;;;;;;10.60;3.70;;;19.10;99.90;;;;;;5000287;28;20416;-83
2023/09/30 10:14:47;;;;;;;13.43;4.13;;;19.40;99.90;;;;;;4988419;28;20424;-83
2023/09/30 10:17:13;;;;;;;12.38;4.45;;;19.00;99.90;;;;;;4980257;28;20464;-84
2023/09/30 10:20:07;;;;;;;12.07;3.35;;;19.00;99.90;;;;;;5003558;28;20917;-81
2023/09/30 10:22:33;;;;;;;15.48;2.75;;;19.10;99.90;;;;;;5024066;28;20488;-81
2023/09/30 10:25:00;;;;;;;12.40;2.55;;;19.10;99.90;;;;;;4982915;28;20509;-82
2023/09/30 10:27:31;;;;;;;10.07;2.42;;;18.70;99.90;;;;;;4988106;28;20448;-84
2023/09/30 10:30:10;;;;;;;9.43;3.38;;;19.20;99.90;;;;;;4981814;28;20429;-83
2023/09/30 10:32:53;;;;;;;9.18;2.80;;;19.30;99.90;;;;;;4992372;28;20902;-83
2023/09/30 10:35:31;;;;;;;8.40;2.80;;;19.40;99.90;;;;;;4994898;28;20503;-87
2023/09/30 10:38:22;;;;;;;10.57;2.85;;;19.60;99.90;;;;;;4994338;28;20591;-86
2023/09/30 10:40:52;;;;;;;10.13;3.05;;;19.60;99.90;;;;;;4998240;28;20969;-87
2023/09/30 10:43:37;;;;;;;12.20;2.90;;;19.80;99.90;;;;;;4995743;28;20441;-85
2023/09/30 10:46:24;;;;;;;10.35;3.47;;;20.00;99.90;;;;;;4975672;28;20533;-87
2023/09/30 10:48:51;;;;;;;11.85;3.05;;;20.30;99.90;;;;;;4984973;28;20508;-87
2023/09/30 10:51:23;;;;;;;9.98;3.72;;;19.90;99.90;;;;;;4984223;28;20913;-86
2023/09/30 10:54:00;;;;;;;13.38;3.70;;;19.80;99.90;;;;;;4960584;28;20421;-86
2023/09/30 10:56:32;;;;;;;9.05;2.85;;;19.50;99.90;;;;;;4991065;28;20460;-87
2023/09/30 10:58:59;;;;;;;8.85;2.70;;;19.80;99.90;;;;;;5000720;28;20416;-85
2023/09/30 11:01:25;;;;;;;9.57;2.73;;;19.50;99.90;;;;;;4985007;28;21037;-87
2023/09/30 11:03:59;;;;;;;9.60;2.80;;;19.20;99.90;;;;;;5013665;28;20414;-87
2023/09/30 11:06:25;;;;;;;9.13;2.80;;;19.20;99.90;;;;;;5002467;28;20843;-86
2023/09/30 11:08:58;;;;;;;8.43;2.80;;;19.60;99.90;;;;;;4977172;28;20480;-86
2023/09/30 11:11:43;;;;;;;10.35;2.55;;;19.70;99.90;;;;;;4997885;28;20425;-87
2023/09/30 11:14:22;;;;;;;9.90;2.70;;;19.80;99.90;;;;;;5000871;28;20440;-86
2023/09/30 11:16:49;;;;;;;7.93;2.25;;;20.30;99.90;;;;;;5005963;28;20430;-85
2023/09/30 11:19:15;;;;;;;7.90;2.35;;;20.10;99.90;;;;;;4982827;28;20505;-85
2023/09/30 11:21:43;;;;;;;9.32;2.72;;;20.10;99.90;;;;;;4999340;28;20517;-86
2023/09/30 11:24:10;;;;;;;9.90;2.50;;;20.00;99.90;;;;;;4990493;28;20426;-85
2023/09/30 11:26:37;;;;;;;8.10;2.10;;;20.10;99.90;;;;;;4996825;28;20414;-85
2023/09/30 11:29:11;;;;;;;8.50;2.40;;;20.20;99.90;;;;;;5001671;28;20421;-87
2023/09/30 11:31:41;;;;;;;8.82;2.10;;;20.00;99.90;;;;;;5009839;28;20417;-88
2023/09/30 11:34:07;;;;;;;8.00;2.00;;;19.90;99.90;;;;;;5008249;28;20417;-87
2023/09/30 11:36:38;;;;;;;8.15;2.15;;;19.70;99.90;;;;;;4992827;28;20409;-87
2023/09/30 11:39:04;;;;;;;7.50;1.85;;;19.60;99.90;;;;;;4987729;28;20523;-86
2023/09/30 11:41:34;;;;;;;9.45;2.30;;;19.40;99.90;;;;;;4992709;28;20409;-86
2023/09/30 11:44:01;;;;;;;6.30;1.80;;;19.60;99.90;;;;;;4995731;28;21010;-86
2023/09/30 11:46:27;;;;;;;8.68;2.30;;;19.00;99.90;;;;;;4989684;28;20497;-86
2023/09/30 11:49:04;;;;;;;11.23;2.22;;;19.20;99.90;;;;;;4987021;28;20428;-86
2023/09/30 11:51:45;;;;;;;6.97;2.30;;;18.90;99.90;;;;;;4988255;28;20437;-85
2023/09/30 11:54:14;;;;;;;9.13;2.03;;;19.10;99.90;;;;;;5001592;28;20757;-86
2023/09/30 11:56:40;;;;;;;8.10;2.08;;;18.90;99.90;;;;;;4975878;28;20495;-86
2023/09/30 11:59:05;;;;;;;10.37;1.93;;;18.70;99.90;;;;;;4973050;28;20922;-86
2023/09/30 12:01:32;;;;;;;6.07;2.03;;;19.10;99.90;;;;;;4990705;28;20519;-87
2023/09/30 12:03:59;;;;;;;7.25;2.13;;;19.30;99.90;;;;;;4982701;28;20438;-86
2023/09/30 12:06:25;;;;;;;7.60;1.90;;;19.50;99.90;;;;;;4984670;28;20957;-86
2023/09/30 12:08:51;;;;;;;8.50;2.33;;;16.90;99.90;;;;;;4996534;28;20454;-87
2023/09/30 12:11:20;;;;;;;8.48;2.50;;;19.40;99.90;;;;;;4964176;28;20799;-86
2023/09/30 12:13:48;;;;;;;6.57;1.90;;;19.30;99.90;;;;;;4991878;28;20421;-86
2023/09/30 12:16:15;;;;;;;6.28;2.13;;;19.20;99.90;;;;;;5008483;28;20999;-82
2023/09/30 12:18:41;;;;;;;6.90;2.20;;;19.40;99.90;;;;;;4976244;28;20492;-84
2023/09/30 12:21:12;;;;;;;8.52;2.25;;;19.40;99.90;;;;;;5007859;28;20496;-85
2023/09/30 12:23:38;;;;;;;6.72;2.00;;;19.30;99.90;;;;;;5008671;28;20927;-86
2023/09/30 12:26:06;;;;;;;7.00;2.28;;;19.30;99.90;;;;;;4968167;28;20522;-85
2023/09/30 12:28:33;;;;;;;8.88;2.03;;;19.50;99.90;;;;;;4976567;28;20411;-86
2023/09/30 12:31:03;;;;;;;9.02;2.28;;;19.20;99.90;;;;;;5008410;28;20405;-86
2023/09/30 12:33:30;;;;;;;7.78;2.05;;;19.90;99.90;;;;;;5005757;28;20812;-86
2023/09/30 12:35:57;;;;;;;6.95;1.95;;;19.60;99.90;;;;;;5008090;28;20495;-86
2023/09/30 12:38:22;;;;;;;6.97;1.80;;;19.90;99.90;;;;;;5008250;28;20415;-86
2023/09/30 12:40:48;;;;;;;8.80;2.47;;;20.00;99.90;;;;;;5008426;28;20420;-87
2023/09/30 12:43:14;;;;;;;6.73;2.13;;;20.00;99.90;;;;;;5005851;28;20932;-86
2023/09/30 12:45:39;;;;;;;6.63;2.08;;;20.10;99.90;;;;;;4990714;28;20432;-86
2023/09/30 12:48:05;;;;;;;5.88;2.00;;;20.50;99.90;;;;;;4988620;28;20532;-87
2023/09/30 12:50:31;;;;;;;6.50;1.93;;;20.20;99.90;;;;;;4971664;28;20427;-85
2023/09/30 12:52:57;;;;;;;5.73;1.80;;;20.30;99.90;;;;;;4980346;28;20413;-87
2023/09/30 12:55:22;;;;;;;7.30;2.22;;;20.30;99.90;;;;;;5007928;28;20416;-85
2023/09/30 12:57:48;;;;;;;6.43;1.97;;;20.20;99.90;;;;;;4993046;28;20445;-86
2023/09/30 13:00:15;;;;;;;6.30;2.10;;;20.20;99.90;;;;;;4976961;28;20416;-86
2023/09/30 13:02:41;;;;;;;6.60;2.13;;;19.90;99.90;;;;;;4988093;28;20863;-87
2023/09/30 13:05:09;;;;;;;6.13;2.58;;;20.50;99.90;;;;;;5006771;28;20512;-86
2023/09/30 13:07:34;;;;;;;7.00;2.00;;;20.30;99.90;;;;;;5007269;28;20484;-86
2023/09/30 13:10:00;;;;;;;6.93;2.10;;;20.40;99.90;;;;;;5002905;28;20431;-86
2023/09/30 13:12:26;;;;;;;6.20;1.90;;;20.30;99.90;;;;;;4989204;28;20451;-87
2023/09/30 13:14:55;;;;;;;10.15;2.50;;;20.40;99.90;;;;;;4988690;28;20413;-85
2023/09/30 13:17:23;;;;;;;6.63;2.20;;;20.30;99.90;;;;;;5008454;28;20421;-86
2023/09/30 13:19:50;;;;;;;6.90;2.13;;;20.50;99.90;;;;;;5002801;28;20436;-87
2023/09/30 13:22:16;;;;;;;7.05;2.40;;;20.10;99.90;;;;;;5008711;28;21082;-87